Time;durP1;ratioP1;P1;durP2;ratioP2;P2;SDS_P1;SDS_P2;PMS_P1;PMS_P2;Temp;Humidity;BMP_temperature;BMP_pressure;BME280_temperature;BME280_humidity;BME280_pressure;Samples;Min_cycle;Max_cycle;Signal;HPM_P1;HPM_P2
2023/08/19 00:00:59;;;;;;;105.27;2.83;;;27.80;26.20;;;;;;5052044;28;20442;-76
2023/08/19 00:03:25;;;;;;;104.87;2.63;;;28.10;26.00;;;;;;5051921;28;20207;-76
2023/08/19 00:05:51;;;;;;;105.17;2.63;;;28.10;26.20;;;;;;5051912;28;20460;-75
2023/08/19 00:08:17;;;;;;;105.07;2.77;;;28.10;26.20;;;;;;5052493;28;20241;-76
2023/08/19 00:10:43;;;;;;;104.67;2.50;;;28.40;25.50;;;;;;5052674;28;20501;-75
2023/08/19 00:13:09;;;;;;;104.40;2.30;;;28.30;25.90;;;;;;5052267;28;20712;-75
2023/08/19 00:15:35;;;;;;;104.67;2.70;;;25.70;24.20;;;;;;5051255;28;20921;-75
2023/08/19 00:18:01;;;;;;;104.87;2.80;;;28.30;25.40;;;;;;5051859;28;20434;-75
2023/08/19 00:20:28;;;;;;;105.47;2.77;;;28.10;25.90;;;;;;5034192;28;20667;-75
2023/08/19 00:22:56;;;;;;;105.33;2.70;;;28.00;26.50;;;;;;5034251;28;20421;-76
2023/08/19 00:25:22;;;;;;;105.07;2.80;;;27.70;26.50;;;;;;5051951;28;20456;-75
2023/08/19 00:27:47;;;;;;;105.70;3.03;;;27.80;26.70;;;;;;5052229;28;20433;-75
2023/08/19 00:30:13;;;;;;;105.37;2.93;;;27.90;26.20;;;;;;5052035;28;20429;-75
2023/08/19 00:32:40;;;;;;;106.97;3.83;;;27.80;26.30;;;;;;5051774;28;20554;-75
2023/08/19 00:35:06;;;;;;;105.07;2.80;;;27.80;26.20;;;;;;5051823;28;20569;-75
2023/08/19 00:37:32;;;;;;;105.03;2.40;;;27.80;26.60;;;;;;5034185;28;20414;-75
2023/08/19 00:39:58;;;;;;;105.80;3.13;;;27.90;25.90;;;;;;5051096;28;20434;-75
2023/08/19 00:42:23;;;;;;;105.03;3.07;;;27.60;26.70;;;;;;5043386;28;20443;-75
2023/08/19 00:44:49;;;;;;;105.10;2.70;;;27.60;26.30;;;;;;5031205;28;20573;-75
2023/08/19 00:47:15;;;;;;;104.83;2.70;;;27.70;26.30;;;;;;5014155;28;20180;-74
2023/08/19 00:49:42;;;;;;;105.07;2.80;;;27.80;26.50;;;;;;5031639;28;20247;-75
2023/08/19 00:52:07;;;;;;;106.07;2.97;;;27.70;26.10;;;;;;5031798;28;20434;-75
2023/08/19 00:54:33;;;;;;;104.80;2.60;;;27.70;26.40;;;;;;5031582;28;20466;-75
2023/08/19 00:56:59;;;;;;;105.70;2.83;;;27.60;26.70;;;;;;5014039;28;20275;-75
2023/08/19 00:59:26;;;;;;;104.60;2.57;;;27.60;26.40;;;;;;5031869;28;20184;-75
2023/08/19 01:01:52;;;;;;;104.77;2.63;;;27.40;26.90;;;;;;5012676;28;20821;-75
2023/08/19 01:04:17;;;;;;;105.40;3.23;;;27.30;27.10;;;;;;5031119;28;20422;-76
2023/08/19 01:07:08;;;;;;;104.53;2.60;;;27.50;26.30;;;;;;5031536;28;20781;-74
2023/08/19 01:09:52;;;;;;;104.77;2.40;;;27.30;26.70;;;;;;5031534;28;20180;-75
2023/08/19 01:12:23;;;;;;;104.20;2.50;;;27.40;26.60;;;;;;5031382;28;20431;-75
2023/08/19 01:15:07;;;;;;;104.77;2.60;;;27.20;27.10;;;;;;5031310;28;20454;-75
2023/08/19 01:17:35;;;;;;;105.90;2.97;;;27.60;26.40;;;;;;5031631;28;20437;-76
2023/08/19 01:20:01;;;;;;;105.10;2.87;;;27.50;26.30;;;;;;5031268;28;20416;-75
2023/08/19 01:22:54;;;;;;;105.37;2.80;;;27.70;26.50;;;;;;5031427;28;20414;-75
2023/08/19 01:25:20;;;;;;;105.07;3.00;;;27.80;26.50;;;;;;5030715;28;20199;-76
2023/08/19 01:27:46;;;;;;;105.60;3.13;;;27.90;26.50;;;;;;5013666;28;20457;-75
2023/08/19 01:30:12;;;;;;;104.87;2.60;;;28.00;25.90;;;;;;5030177;28;20419;-75
2023/08/19 01:32:38;;;;;;;104.77;2.90;;;28.20;25.10;;;;;;5031808;28;20203;-75
2023/08/19 01:35:05;;;;;;;106.83;2.90;;;28.40;24.90;;;;;;5030922;28;20459;-76
2023/08/19 01:37:44;;;;;;;105.10;2.80;;;28.30;25.70;;;;;;5031491;28;20180;-75
2023/08/19 01:40:13;;;;;;;105.90;3.37;;;28.10;25.40;;;;;;5013767;28;20426;-75
2023/08/19 01:42:39;;;;;;;105.67;3.33;;;28.20;26.20;;;;;;5031465;28;20501;-75
2023/08/19 01:45:09;;;;;;;105.13;3.00;;;28.10;25.50;;;;;;5031259;28;20407;-76
2023/08/19 01:47:37;;;;;;;105.23;2.83;;;28.10;25.60;;;;;;5031391;28;20553;-75
2023/08/19 01:50:02;;;;;;;106.53;3.00;;;27.90;25.80;;;;;;5031393;28;20426;-75
2023/08/19 01:52:28;;;;;;;105.17;2.77;;;27.90;26.10;;;;;;5034011;28;20399;-74
2023/08/19 01:54:54;;;;;;;105.00;2.73;;;27.60;26.90;;;;;;5033029;28;20208;-76
2023/08/19 01:57:19;;;;;;;105.97;2.90;;;27.40;27.20;;;;;;5035344;28;20195;-75
2023/08/19 01:59:45;;;;;;;105.10;2.77;;;27.40;27.50;;;;;;5035075;28;20207;-75
2023/08/19 02:02:10;;;;;;;105.57;2.90;;;27.50;28.10;;;;;;5034834;28;20196;-74
2023/08/19 02:04:36;;;;;;;105.27;2.90;;;27.40;28.70;;;;;;5034603;28;20181;-75
2023/08/19 02:07:01;;;;;;;105.77;3.00;;;27.00;30.40;;;;;;5035007;28;20222;-75
2023/08/19 02:09:28;;;;;;;105.50;2.90;;;27.00;30.90;;;;;;5034945;28;20636;-75
2023/08/19 02:11:54;;;;;;;105.67;3.10;;;27.00;31.40;;;;;;5035002;28;20311;-75
2023/08/19 02:14:20;;;;;;;105.20;2.67;;;27.00;32.60;;;;;;5034821;28;20486;-75
2023/08/19 02:16:46;;;;;;;106.10;2.73;;;26.90;32.30;;;;;;5034538;28;20426;-75
2023/08/19 02:19:11;;;;;;;105.70;2.90;;;26.80;30.60;;;;;;5034832;28;20176;-75
2023/08/19 02:21:37;;;;;;;106.27;2.93;;;26.90;31.20;;;;;;5034692;28;20283;-76
2023/08/19 02:24:03;;;;;;;106.00;3.43;;;26.80;32.20;;;;;;5034708;28;20179;-75
2023/08/19 02:26:28;;;;;;;105.60;2.60;;;26.60;32.90;;;;;;5034355;28;20173;-75
2023/08/19 02:28:54;;;;;;;107.60;3.77;;;26.50;32.70;;;;;;5034683;28;20180;-75
2023/08/19 02:31:19;;;;;;;106.60;2.90;;;26.40;33.20;;;;;;5034672;28;20208;-75
2023/08/19 02:33:45;;;;;;;106.17;2.80;;;26.40;33.70;;;;;;5034143;28;20287;-75
2023/08/19 02:36:12;;;;;;;106.77;3.23;;;25.60;34.70;;;;;;5034316;28;20281;-75
2023/08/19 02:38:38;;;;;;;106.77;3.00;;;25.30;36.20;;;;;;5034485;28;20180;-75
2023/08/19 02:41:03;;;;;;;106.60;2.90;;;25.40;36.20;;;;;;5016781;28;20778;-75
2023/08/19 02:43:29;;;;;;;107.20;3.20;;;25.60;37.30;;;;;;5034489;28;20212;-75
2023/08/19 02:45:54;;;;;;;108.27;3.37;;;25.60;36.50;;;;;;5034450;28;20180;-75
2023/08/19 02:48:20;;;;;;;106.77;2.97;;;25.60;36.30;;;;;;5034339;28;20659;-75
2023/08/19 02:50:45;;;;;;;109.13;3.40;;;25.40;36.00;;;;;;5034216;28;20194;-74
2023/08/19 02:53:11;;;;;;;106.90;2.83;;;25.20;37.30;;;;;;5034279;28;20176;-75
2023/08/19 02:55:41;;;;;;;107.57;3.10;;;25.30;37.30;;;;;;5033721;28;20203;-74
2023/08/19 02:58:07;;;;;;;106.93;2.80;;;25.00;37.90;;;;;;5034148;28;20255;-75
2023/08/19 03:00:37;;;;;;;107.07;2.80;;;24.90;38.40;;;;;;5033780;28;20528;-75
2023/08/19 03:03:05;;;;;;;106.70;2.80;;;24.30;39.50;;;;;;5032940;28;20462;-76
2023/08/19 03:05:30;;;;;;;107.20;3.23;;;23.90;41.20;;;;;;5033706;28;20433;-75
2023/08/19 03:07:56;;;;;;;107.57;3.37;;;23.90;41.70;;;;;;5033953;28;20894;-75
2023/08/19 03:10:21;;;;;;;107.80;3.50;;;24.20;41.60;;;;;;5033735;28;20198;-75
2023/08/19 03:12:47;;;;;;;109.47;3.00;;;24.50;40.00;;;;;;5033843;28;20195;-75
2023/08/19 03:15:13;;;;;;;107.70;3.20;;;24.60;39.30;;;;;;5033295;28;20213;-75
2023/08/19 03:17:38;;;;;;;107.57;2.87;;;24.70;39.20;;;;;;5033742;28;20183;-75
2023/08/19 03:20:05;;;;;;;109.00;3.67;;;24.70;39.60;;;;;;5033609;28;20610;-76
2023/08/19 03:22:31;;;;;;;107.93;3.10;;;24.80;39.20;;;;;;5033762;28;20218;-75
2023/08/19 03:24:56;;;;;;;107.87;3.07;;;24.70;40.70;;;;;;5033357;28;20414;-74
2023/08/19 03:27:22;;;;;;;108.77;3.40;;;24.80;40.00;;;;;;5033563;28;20187;-75
2023/08/19 03:29:48;;;;;;;109.30;3.50;;;24.70;41.40;;;;;;5033346;28;20177;-75
2023/08/19 03:32:13;;;;;;;108.67;3.33;;;24.70;40.80;;;;;;5033274;28;20218;-75
2023/08/19 03:34:39;;;;;;;108.60;3.20;;;24.70;41.90;;;;;;5032746;28;20501;-75
2023/08/19 03:37:04;;;;;;;108.07;2.83;;;24.70;40.80;;;;;;5033639;28;20620;-74
2023/08/19 03:39:30;;;;;;;116.43;3.87;;;24.70;41.80;;;;;;5015550;28;20184;-76
2023/08/19 03:41:55;;;;;;;109.20;3.50;;;24.60;40.80;;;;;;5033197;28;20230;-75
2023/08/19 03:44:21;;;;;;;111.30;3.70;;;24.50;41.80;;;;;;5033041;28;20182;-75
2023/08/19 03:46:47;;;;;;;108.77;3.20;;;24.40;41.80;;;;;;5032982;28;20184;-74
2023/08/19 03:49:12;;;;;;;108.60;3.00;;;24.50;42.10;;;;;;5033097;28;20269;-76
2023/08/19 03:51:38;;;;;;;108.90;3.40;;;24.40;41.80;;;;;;5033021;28;20662;-75
2023/08/19 03:54:04;;;;;;;109.60;3.70;;;24.30;41.80;;;;;;5033071;28;20231;-75
2023/08/19 03:56:29;;;;;;;110.60;3.80;;;24.30;43.00;;;;;;5032638;28;20173;-75
2023/08/19 03:58:55;;;;;;;111.10;4.17;;;24.30;42.10;;;;;;5033438;28;20177;-75
2023/08/19 04:01:20;;;;;;;109.00;3.00;;;24.10;42.50;;;;;;5032913;28;20623;-76
2023/08/19 04:03:46;;;;;;;110.23;3.50;;;24.10;42.60;;;;;;5032862;28;20245;-76
2023/08/19 04:06:11;;;;;;;110.47;3.60;;;24.20;42.80;;;;;;5032479;28;20233;-76
2023/08/19 04:08:37;;;;;;;109.67;3.10;;;24.10;43.00;;;;;;5032918;28;20181;-76
2023/08/19 04:11:04;;;;;;;110.37;3.80;;;24.10;42.70;;;;;;5032627;28;20201;-76
2023/08/19 04:13:30;;;;;;;109.77;3.20;;;24.10;42.90;;;;;;5032521;28;20600;-76
2023/08/19 04:16:04;;;;;;;109.80;3.30;;;24.20;43.00;;;;;;5032220;28;20402;-76
2023/08/19 04:18:30;;;;;;;109.57;3.37;;;24.20;42.80;;;;;;5032574;28;20579;-75
2023/08/19 04:20:56;;;;;;;111.07;3.17;;;24.20;42.40;;;;;;5032559;28;20485;-76
2023/08/19 04:23:22;;;;;;;109.73;3.10;;;24.10;43.10;;;;;;5032646;28;20819;-75
2023/08/19 04:25:47;;;;;;;110.23;3.43;;;24.00;43.00;;;;;;5032231;28;20581;-76
2023/08/19 04:28:14;;;;;;;110.37;3.50;;;24.00;43.10;;;;;;5032522;28;20173;-76
2023/08/19 04:30:40;;;;;;;109.77;3.10;;;23.90;44.10;;;;;;5032523;28;20200;-76
2023/08/19 04:33:06;;;;;;;113.13;3.50;;;23.90;42.90;;;;;;5032282;28;20835;-75
2023/08/19 04:35:32;;;;;;;110.40;3.30;;;24.10;42.80;;;;;;5033602;28;20479;-77
2023/08/19 04:37:57;;;;;;;109.97;3.10;;;24.00;42.80;;;;;;5033693;28;20182;-76
2023/08/19 04:40:23;;;;;;;110.07;3.60;;;23.90;43.70;;;;;;5033330;28;20287;-76
2023/08/19 04:42:48;;;;;;;110.03;3.10;;;23.90;43.70;;;;;;5033168;28;20259;-77
2023/08/19 04:45:16;;;;;;;109.70;3.10;;;23.80;43.80;;;;;;5033560;28;20176;-76
2023/08/19 04:47:41;;;;;;;110.67;3.60;;;24.00;43.00;;;;;;5016152;28;20660;-77
2023/08/19 04:50:08;;;;;;;110.27;3.30;;;24.00;43.40;;;;;;5033802;28;20502;-77
2023/08/19 04:52:34;;;;;;;110.40;3.30;;;24.00;44.00;;;;;;5034186;28;20169;-77
2023/08/19 04:55:00;;;;;;;111.33;3.60;;;24.00;44.00;;;;;;5032877;28;20455;-76
2023/08/19 04:57:26;;;;;;;110.50;3.40;;;23.90;43.80;;;;;;5032046;28;20529;-76
2023/08/19 04:59:51;;;;;;;110.47;3.40;;;23.90;44.20;;;;;;5030482;28;20174;-77
2023/08/19 05:02:17;;;;;;;111.67;3.80;;;24.00;44.80;;;;;;5042694;28;20534;-76
2023/08/19 05:04:42;;;;;;;110.63;3.57;;;23.90;44.80;;;;;;5031423;28;20172;-75
2023/08/19 05:07:08;;;;;;;113.00;3.57;;;24.00;43.70;;;;;;5031704;28;20180;-77
2023/08/19 05:09:34;;;;;;;110.50;3.33;;;24.00;43.50;;;;;;5031679;28;20203;-76
2023/08/19 05:11:59;;;;;;;110.00;2.87;;;24.10;43.80;;;;;;5031633;28;20195;-76
2023/08/19 05:14:25;;;;;;;110.37;3.17;;;24.30;44.00;;;;;;5031356;28;20202;-76
2023/08/19 05:16:51;;;;;;;110.30;3.10;;;23.90;43.00;;;;;;5014107;28;20228;-76
2023/08/19 05:19:17;;;;;;;110.70;3.50;;;23.80;42.70;;;;;;5031552;28;20421;-76
2023/08/19 05:21:43;;;;;;;111.10;3.30;;;23.50;44.90;;;;;;5031753;28;20191;-76
2023/08/19 05:24:11;;;;;;;110.37;3.13;;;23.60;44.60;;;;;;5031283;28;20850;-77
2023/08/19 05:26:37;;;;;;;111.17;3.30;;;23.30;45.30;;;;;;5032696;28;20172;-76
2023/08/19 05:29:03;;;;;;;110.37;3.30;;;23.50;44.90;;;;;;5035671;28;20418;-77
2023/08/19 05:31:29;;;;;;;110.47;3.00;;;23.70;45.90;;;;;;5035436;28;20460;-76
2023/08/19 05:33:55;;;;;;;110.70;2.93;;;24.10;44.30;;;;;;5035152;28;20197;-77
2023/08/19 05:36:20;;;;;;;110.00;3.00;;;24.40;43.70;;;;;;5036002;28;20430;-76
2023/08/19 05:38:46;;;;;;;110.80;3.30;;;24.50;43.40;;;;;;5054493;28;20176;-76
2023/08/19 05:41:11;;;;;;;111.10;3.50;;;24.60;43.40;;;;;;5020200;28;20201;-77
2023/08/19 05:43:37;;;;;;;110.90;3.30;;;24.60;43.60;;;;;;5035442;28;20645;-77
2023/08/19 05:46:07;;;;;;;110.53;3.30;;;24.70;43.80;;;;;;5033522;28;20219;-76
2023/08/19 05:48:33;;;;;;;110.77;3.37;;;24.30;41.90;;;;;;5033682;28;20167;-76
2023/08/19 05:50:58;;;;;;;110.57;3.50;;;23.40;44.90;;;;;;5027794;28;20564;-76
2023/08/19 05:53:24;;;;;;;110.10;3.00;;;23.40;45.80;;;;;;5033688;28;20513;-76
2023/08/19 05:55:50;;;;;;;110.90;3.70;;;23.60;45.00;;;;;;5015250;28;20612;-76
2023/08/19 05:58:16;;;;;;;110.27;3.23;;;23.20;45.60;;;;;;5016016;28;20967;-76
2023/08/19 06:00:42;;;;;;;110.43;3.27;;;23.10;46.00;;;;;;5033907;28;20461;-76
2023/08/19 06:03:08;;;;;;;109.60;2.70;;;23.30;45.30;;;;;;5035149;28;20215;-76
2023/08/19 06:05:35;;;;;;;110.00;3.10;;;23.80;43.80;;;;;;5035074;28;20448;-76
2023/08/19 06:08:01;;;;;;;110.03;3.30;;;23.60;45.00;;;;;;5034843;28;20227;-76
2023/08/19 06:10:26;;;;;;;109.70;3.27;;;23.60;45.00;;;;;;5035038;28;20841;-76
2023/08/19 06:12:52;;;;;;;110.27;3.23;;;23.70;44.10;;;;;;5034963;28;20218;-75
2023/08/19 06:15:18;;;;;;;109.67;3.07;;;23.70;45.10;;;;;;5034718;28;20214;-76
2023/08/19 06:17:43;;;;;;;112.80;3.93;;;27.00;45.80;;;;;;5034980;28;20680;-76
2023/08/19 06:20:09;;;;;;;109.97;3.23;;;23.90;43.50;;;;;;5034625;28;20225;-75
2023/08/19 06:22:35;;;;;;;111.90;3.90;;;23.80;44.20;;;;;;5034418;28;20208;-76
2023/08/19 06:25:01;;;;;;;114.97;3.23;;;24.20;45.60;;;;;;5034418;28;20443;-75
2023/08/19 06:27:27;;;;;;;110.37;3.40;;;24.70;44.70;;;;;;5034865;28;20700;-76
2023/08/19 06:29:52;;;;;;;110.30;3.30;;;25.20;44.10;;;;;;5034560;28;20502;-76
2023/08/19 06:32:18;;;;;;;112.67;4.13;;;25.40;42.30;;;;;;5016944;28;20223;-76
2023/08/19 06:34:44;;;;;;;110.63;3.73;;;25.50;41.30;;;;;;5034193;28;20191;-77
2023/08/19 06:37:15;;;;;;;111.33;3.60;;;25.80;41.60;;;;;;5034383;28;20169;-76
2023/08/19 06:39:44;;;;;;;110.13;3.47;;;25.50;38.50;;;;;;5016707;28;20179;-75
2023/08/19 06:42:11;;;;;;;111.90;3.33;;;25.00;40.20;;;;;;5034317;28;20431;-75
2023/08/19 06:44:38;;;;;;;115.40;3.30;;;24.70;41.80;;;;;;5034337;28;20926;-75
2023/08/19 06:47:07;;;;;;;109.60;3.03;;;24.70;41.80;;;;;;5016474;28;20419;-75
2023/08/19 06:49:34;;;;;;;111.13;3.40;;;24.80;41.80;;;;;;5033924;28;20489;-74
2023/08/19 06:52:00;;;;;;;109.40;3.20;;;24.90;40.80;;;;;;5033845;28;20431;-75
2023/08/19 06:54:25;;;;;;;109.90;3.40;;;24.90;41.80;;;;;;5033869;28;20482;-75
2023/08/19 06:56:57;;;;;;;110.40;3.50;;;24.70;41.70;;;;;;5033938;28;20227;-74
2023/08/19 06:59:34;;;;;;;109.50;3.10;;;24.70;41.90;;;;;;5034121;28;20176;-75
2023/08/19 07:02:05;;;;;;;109.20;2.80;;;24.80;41.30;;;;;;5034149;28;20431;-75
2023/08/19 07:04:32;;;;;;;109.90;3.07;;;24.90;41.80;;;;;;5033682;28;20448;-75
2023/08/19 07:07:00;;;;;;;111.90;3.70;;;25.40;40.70;;;;;;5033975;28;20442;-75
2023/08/19 07:09:27;;;;;;;110.63;3.50;;;25.70;38.70;;;;;;5016082;28;20418;-75
2023/08/19 07:11:55;;;;;;;109.00;3.00;;;26.00;39.30;;;;;;5033813;28;20471;-75
2023/08/19 07:14:22;;;;;;;109.90;3.30;;;26.30;38.20;;;;;;5033799;28;20816;-75
2023/08/19 07:16:49;;;;;;;112.00;3.57;;;25.90;39.10;;;;;;5015728;28;20835;-75
2023/08/19 07:19:21;;;;;;;109.60;3.40;;;26.10;38.70;;;;;;5033640;28;20407;-75
2023/08/19 07:21:47;;;;;;;109.80;3.43;;;25.80;39.40;;;;;;5033513;28;20827;-75
2023/08/19 07:24:13;;;;;;;109.67;2.90;;;26.10;38.80;;;;;;5033588;28;20415;-75
2023/08/19 07:26:39;;;;;;;110.27;3.40;;;26.30;39.30;;;;;;5033375;28;20472;-75
2023/08/19 07:29:05;;;;;;;109.90;3.50;;;26.70;38.10;;;;;;5016002;28;20183;-75
2023/08/19 07:31:31;;;;;;;109.17;2.97;;;26.10;39.80;;;;;;5033210;28;20455;-75
2023/08/19 07:33:59;;;;;;;109.73;3.37;;;26.20;40.00;;;;;;5033478;28;20442;-75
2023/08/19 07:36:25;;;;;;;109.17;3.20;;;25.80;41.50;;;;;;5033028;28;20413;-77
2023/08/19 07:38:51;;;;;;;110.80;3.70;;;25.80;41.00;;;;;;5033474;28;20485;-75
2023/08/19 07:41:19;;;;;;;109.53;3.30;;;26.20;39.90;;;;;;5033219;28;20472;-75
2023/08/19 07:43:45;;;;;;;110.13;3.27;;;26.70;38.00;;;;;;5033510;28;20168;-76
2023/08/19 07:46:14;;;;;;;109.77;3.43;;;27.00;36.60;;;;;;5032971;28;20438;-75
2023/08/19 07:48:39;;;;;;;108.50;3.20;;;27.00;36.30;;;;;;5032989;28;20414;-75
2023/08/19 07:51:05;;;;;;;110.93;3.83;;;27.20;35.60;;;;;;5032663;28;20423;-75
2023/08/19 07:53:31;;;;;;;108.77;3.20;;;27.10;36.90;;;;;;5033133;28;20204;-77
2023/08/19 07:55:56;;;;;;;111.27;3.40;;;27.10;37.30;;;;;;5032970;28;20177;-75
2023/08/19 07:58:22;;;;;;;109.10;3.20;;;27.10;36.50;;;;;;5032231;28;21130;-76
2023/08/19 08:00:47;;;;;;;110.33;3.47;;;27.00;37.00;;;;;;5019557;28;20203;-75
2023/08/19 08:03:13;;;;;;;108.50;3.10;;;27.00;37.50;;;;;;5034371;28;20168;-76
2023/08/19 08:05:39;;;;;;;108.67;2.83;;;27.10;37.30;;;;;;5042129;28;20180;-75
2023/08/19 08:08:05;;;;;;;109.10;3.50;;;27.00;37.50;;;;;;5032212;28;20168;-75
2023/08/19 08:10:30;;;;;;;108.47;3.20;;;26.90;36.90;;;;;;5032060;28;20610;-76
2023/08/19 08:12:56;;;;;;;108.97;3.57;;;26.80;37.70;;;;;;5032409;28;20409;-75
2023/08/19 08:15:22;;;;;;;108.90;3.20;;;26.90;37.70;;;;;;5031462;28;20285;-75
2023/08/19 08:17:48;;;;;;;108.43;3.27;;;27.00;37.40;;;;;;5032114;28;20176;-75
2023/08/19 08:20:14;;;;;;;108.53;3.37;;;27.20;36.60;;;;;;5032143;28;20415;-75
2023/08/19 08:22:39;;;;;;;108.47;3.13;;;27.20;36.10;;;;;;5032476;28;20643;-75
2023/08/19 08:25:05;;;;;;;109.40;3.50;;;27.20;35.70;;;;;;5031966;28;20184;-75
2023/08/19 08:27:31;;;;;;;108.40;3.10;;;27.10;35.50;;;;;;5032235;28;20198;-75
2023/08/19 08:29:56;;;;;;;108.47;3.10;;;27.10;35.70;;;;;;5032278;28;20893;-75
2023/08/19 08:32:22;;;;;;;108.30;3.17;;;27.50;35.50;;;;;;5032110;28;20184;-75
2023/08/19 08:34:47;;;;;;;108.57;3.10;;;28.00;33.60;;;;;;5031883;28;20291;-77
2023/08/19 08:37:13;;;;;;;107.87;3.17;;;27.90;33.70;;;;;;5032186;28;20560;-75
2023/08/19 08:39:39;;;;;;;107.67;2.80;;;28.40;33.60;;;;;;5030190;28;20252;-75
2023/08/19 08:42:05;;;;;;;108.53;3.47;;;28.70;33.10;;;;;;5027301;28;20200;-75
2023/08/19 08:44:33;;;;;;;109.33;3.57;;;28.70;31.90;;;;;;5026792;28;20186;-75
2023/08/19 08:46:59;;;;;;;107.67;2.80;;;28.50;32.90;;;;;;5027467;28;20851;-75
2023/08/19 08:49:27;;;;;;;108.67;3.20;;;28.70;31.90;;;;;;5025230;28;20474;-75
2023/08/19 08:51:54;;;;;;;107.90;3.13;;;29.00;32.20;;;;;;5024573;28;20600;-75
2023/08/19 08:54:21;;;;;;;108.97;3.10;;;28.90;32.10;;;;;;5030968;28;20916;-75
2023/08/19 08:56:47;;;;;;;107.80;3.10;;;29.20;32.30;;;;;;5030327;28;20499;-75
2023/08/19 08:59:13;;;;;;;107.63;3.03;;;29.40;30.80;;;;;;5030569;28;20497;-77
2023/08/19 09:01:44;;;;;;;107.50;2.93;;;29.60;30.30;;;;;;5028679;28;20628;-76
2023/08/19 09:04:11;;;;;;;107.90;3.27;;;29.40;30.70;;;;;;5038431;28;20941;-75
2023/08/19 09:06:38;;;;;;;108.07;2.83;;;30.00;31.00;;;;;;5043157;28;20446;-75
2023/08/19 09:09:11;;;;;;;107.40;2.73;;;30.30;30.20;;;;;;5031822;28;20411;-77
2023/08/19 09:11:39;;;;;;;108.57;3.13;;;30.60;29.00;;;;;;5031601;28;20521;-76
2023/08/19 09:14:21;;;;;;;110.40;2.73;;;30.80;29.00;;;;;;5031686;28;20454;-76
2023/08/19 09:16:48;;;;;;;107.27;2.70;;;31.00;30.90;;;;;;5031684;28;20411;-76
2023/08/19 09:19:14;;;;;;;108.10;3.00;;;31.10;29.30;;;;;;5031621;28;20414;-75
2023/08/19 09:21:40;;;;;;;107.37;2.70;;;31.10;29.10;;;;;;5031499;28;21003;-75
2023/08/19 09:24:06;;;;;;;107.90;3.67;;;31.30;27.90;;;;;;5031611;28;20180;-75
2023/08/19 09:26:32;;;;;;;107.10;2.70;;;31.30;28.10;;;;;;5031228;28;20418;-75
2023/08/19 09:28:58;;;;;;;107.77;3.20;;;30.90;28.10;;;;;;5031875;28;20411;-75
2023/08/19 09:31:24;;;;;;;107.80;3.10;;;30.70;28.50;;;;;;5031135;28;20218;-75
2023/08/19 09:33:52;;;;;;;107.60;3.30;;;30.80;28.20;;;;;;5031449;28;20490;-75
2023/08/19 09:36:24;;;;;;;106.97;2.70;;;31.30;28.80;;;;;;5031000;28;20561;-75
2023/08/19 09:38:56;;;;;;;106.73;2.87;;;31.70;29.50;;;;;;5031466;28;20465;-75
2023/08/19 09:41:29;;;;;;;108.43;3.27;;;32.00;27.30;;;;;;5031629;28;20466;-75
2023/08/19 09:43:56;;;;;;;106.20;2.30;;;32.20;26.80;;;;;;5029313;28;20403;-75
2023/08/19 09:46:42;;;;;;;107.00;2.87;;;32.20;26.70;;;;;;5025927;28;20512;-75
2023/08/19 09:49:09;;;;;;;106.80;2.90;;;32.30;25.90;;;;;;5030019;28;20479;-75
2023/08/19 09:51:36;;;;;;;107.37;3.10;;;31.90;26.10;;;;;;5031385;28;20929;-75
2023/08/19 09:54:11;;;;;;;107.87;3.27;;;32.00;26.50;;;;;;5031358;28;20451;-75
2023/08/19 09:56:37;;;;;;;107.37;3.00;;;32.30;24.70;;;;;;5013689;28;20776;-75
2023/08/19 09:59:03;;;;;;;106.17;2.70;;;31.90;24.40;;;;;;5031414;28;20410;-75
2023/08/19 10:01:28;;;;;;;106.73;3.10;;;31.90;24.20;;;;;;5030670;28;20196;-76
2023/08/19 10:03:54;;;;;;;106.17;2.73;;;32.20;23.80;;;;;;5031381;28;20251;-76
2023/08/19 10:06:28;;;;;;;106.80;2.97;;;32.10;23.40;;;;;;5031094;28;20521;-76
2023/08/19 10:08:59;;;;;;;105.93;2.77;;;32.70;25.30;;;;;;5030632;28;20553;-75
2023/08/19 10:11:27;;;;;;;106.27;2.80;;;32.40;21.90;;;;;;5028567;28;20805;-75
2023/08/19 10:13:55;;;;;;;105.53;2.57;;;32.00;21.80;;;;;;5030650;28;20985;-76
2023/08/19 10:16:23;;;;;;;105.30;2.70;;;32.40;22.80;;;;;;5028466;28;20431;-76
2023/08/19 10:18:51;;;;;;;105.10;2.60;;;32.90;23.80;;;;;;5030722;28;20865;-75
2023/08/19 10:21:18;;;;;;;104.73;2.43;;;33.00;21.90;;;;;;5031929;28;20478;-76
2023/08/19 10:23:45;;;;;;;105.37;2.60;;;32.50;21.40;;;;;;5027510;28;20434;-75
2023/08/19 10:26:12;;;;;;;105.00;2.67;;;32.50;20.50;;;;;;5032520;28;20930;-76
2023/08/19 10:28:37;;;;;;;104.37;2.50;;;32.90;20.60;;;;;;5031542;28;20436;-75
2023/08/19 10:31:07;;;;;;;110.90;3.27;;;32.90;20.80;;;;;;5024912;28;20463;-76
2023/08/19 10:33:41;;;;;;;104.07;2.30;;;32.60;21.20;;;;;;5027592;28;20262;-75
2023/08/19 10:36:09;;;;;;;104.40;2.77;;;32.60;20.50;;;;;;5034121;28;20422;-76
2023/08/19 10:38:45;;;;;;;104.23;2.50;;;32.70;20.10;;;;;;5030601;28;20785;-75
2023/08/19 10:41:23;;;;;;;104.00;2.53;;;33.10;18.90;;;;;;5027774;28;20766;-75
2023/08/19 10:43:57;;;;;;;103.77;2.20;;;33.70;19.10;;;;;;5034221;28;20917;-75
2023/08/19 10:46:26;;;;;;;104.57;2.80;;;34.30;20.90;;;;;;5034166;28;20415;-76
2023/08/19 10:48:51;;;;;;;104.30;2.43;;;34.50;22.50;;;;;;5034247;28;20415;-76
2023/08/19 10:51:18;;;;;;;105.23;2.70;;;34.70;19.10;;;;;;5034212;28;20435;-76
2023/08/19 10:54:04;;;;;;;103.87;2.30;;;35.00;19.10;;;;;;5034143;28;20603;-76
2023/08/19 10:56:30;;;;;;;104.27;2.67;;;34.90;19.00;;;;;;5034012;28;20840;-75
2023/08/19 10:58:56;;;;;;;103.97;2.40;;;35.10;20.20;;;;;;5034509;28;20503;-75
2023/08/19 11:01:23;;;;;;;104.07;2.50;;;35.00;18.70;;;;;;5033782;28;20198;-74
2023/08/19 11:03:49;;;;;;;103.87;2.37;;;35.30;19.80;;;;;;5033864;28;20184;-74
2023/08/19 11:06:14;;;;;;;103.57;2.33;;;35.10;17.60;;;;;;5034135;28;20427;-74
2023/08/19 11:08:41;;;;;;;103.17;2.20;;;34.90;18.20;;;;;;5033874;28;20243;-74
2023/08/19 11:11:07;;;;;;;103.27;2.30;;;34.50;18.10;;;;;;5033986;28;20189;-74
2023/08/19 11:13:34;;;;;;;103.27;2.37;;;34.90;18.70;;;;;;5016028;28;20473;-74
2023/08/19 11:16:05;;;;;;;103.27;2.23;;;35.10;16.30;;;;;;5033617;28;20265;-76
2023/08/19 11:18:30;;;;;;;102.80;2.40;;;34.60;16.70;;;;;;5033635;28;20406;-77
2023/08/19 11:20:56;;;;;;;103.00;2.40;;;35.20;17.30;;;;;;5033657;28;20423;-77
2023/08/19 11:23:28;;;;;;;103.40;2.50;;;35.90;15.90;;;;;;5033332;28;20206;-76
2023/08/19 11:25:54;;;;;;;102.47;2.30;;;35.80;16.10;;;;;;5033004;28;20667;-76
2023/08/19 11:28:20;;;;;;;102.80;2.23;;;36.10;16.30;;;;;;5033523;28;20399;-77
2023/08/19 11:30:46;;;;;;;102.47;2.10;;;36.20;15.00;;;;;;5032578;28;20446;-75
2023/08/19 11:33:16;;;;;;;103.00;2.40;;;36.80;15.20;;;;;;5033397;28;20187;-75
2023/08/19 11:35:42;;;;;;;105.50;2.20;;;37.30;13.00;;;;;;5033251;28;20829;-77
2023/08/19 11:38:17;;;;;;;101.87;2.23;;;37.70;11.60;;;;;;5033559;28;20806;-75
2023/08/19 11:40:43;;;;;;;101.90;2.30;;;38.20;11.50;;;;;;5033511;28;20509;-75
2023/08/19 11:43:11;;;;;;;101.90;2.10;;;38.80;12.70;;;;;;5033288;28;20407;-75
2023/08/19 11:45:41;;;;;;;100.67;2.07;;;39.10;10.50;;;;;;5015186;28;20419;-75
2023/08/19 11:48:11;;;;;;;100.43;1.90;;;39.50;11.50;;;;;;5033229;28;20542;-75
2023/08/19 11:50:51;;;;;;;100.63;2.10;;;39.80;9.50;;;;;;5033327;28;20865;-75
2023/08/19 11:53:24;;;;;;;100.13;2.10;;;39.80;10.80;;;;;;5033122;28;20411;-75
2023/08/19 11:55:56;;;;;;;99.80;2.03;;;39.60;11.40;;;;;;5032863;28;20550;-75
2023/08/19 11:58:21;;;;;;;100.40;2.63;;;39.20;11.90;;;;;;5033183;28;20402;-75
2023/08/19 12:00:47;;;;;;;98.73;1.80;;;39.90;9.50;;;;;;5032841;28;20423;-75
2023/08/19 12:03:15;;;;;;;101.53;2.30;;;40.60;9.00;;;;;;5032900;28;20160;-75
2023/08/19 12:05:43;;;;;;;98.30;2.00;;;39.80;8.60;;;;;;5032571;28;20176;-75
2023/08/19 12:08:10;;;;;;;98.80;2.20;;;38.90;9.70;;;;;;5032783;28;20763;-75
2023/08/19 12:10:43;;;;;;;99.20;2.00;;;37.70;10.50;;;;;;5032603;28;20435;-76
2023/08/19 12:13:09;;;;;;;97.93;2.07;;;36.60;11.70;;;;;;5032643;28;20410;-76
2023/08/19 12:15:34;;;;;;;98.20;1.93;;;36.70;11.70;;;;;;5032625;28;20494;-75
2023/08/19 12:18:00;;;;;;;98.90;2.03;;;37.40;12.30;;;;;;5032712;28;20212;-75
2023/08/19 12:20:25;;;;;;;97.80;1.83;;;37.30;11.60;;;;;;5014722;28;20195;-75
2023/08/19 12:22:51;;;;;;;97.57;2.00;;;38.80;11.40;;;;;;5032626;28;20211;-75
2023/08/19 12:25:16;;;;;;;98.37;2.00;;;38.00;8.60;;;;;;5032167;28;20403;-75
2023/08/19 12:27:43;;;;;;;97.87;2.10;;;38.20;8.30;;;;;;5032962;28;20173;-75